createdAt,value
2018-03-07T00:00:00.506Z,60.89
2018-03-07T00:01:00.516Z,60.89
2018-03-07T00:02:00.532Z,61.55
2018-03-07T00:03:00.254Z,61.55
2018-03-07T00:04:00.549Z,61.27
2018-03-07T00:05:00.555Z,61.55
2018-03-07T00:06:00.564Z,61.36
2018-03-07T00:07:00.582Z,61.46
2018-03-07T00:08:00.306Z,61.2
2018-03-07T00:09:00.597Z,61.27
2018-03-07T00:10:00.612Z,60.98
2018-03-07T00:11:00.623Z,60.89
2018-03-07T00:12:00.629Z,61.08
2018-03-07T00:13:00.638Z,61.68
2018-03-07T00:14:00.364Z,61.08
2018-03-07T00:15:00.657Z,60.98
2018-03-07T00:16:00.669Z,61.27
2018-03-07T00:17:00.398Z,61.3
2018-03-07T00:18:00.407Z,61.11
2018-03-07T00:19:00.418Z,61.08
2018-03-07T00:20:00.709Z,61.27
2018-03-07T00:21:00.730Z,61.17
2018-03-07T00:22:00.729Z,61.01
2018-03-07T00:23:00.786Z,60.89
2018-03-07T00:24:00.471Z,61.36
2018-03-07T00:25:00.763Z,61.46
2018-03-07T00:26:00.773Z,61.17
2018-03-07T00:27:00.783Z,61.27
2018-03-07T00:34:40.941Z,61.08
2018-03-07T00:36:12.992Z,61.08
2018-03-07T00:36:41.240Z,61.08
2018-03-07T00:37:40.975Z,61.08
2018-03-07T00:38:41.266Z,61.17
2018-03-07T00:39:41.275Z,61.36
2018-03-07T00:40:41.283Z,61.17
2018-03-07T00:41:41.308Z,61.08
2018-03-07T00:42:41.302Z,61.17
2018-03-07T00:43:41.315Z,61.46
2018-03-07T00:44:41.325Z,61.17
2018-03-07T00:45:41.337Z,61.55
2018-03-07T00:46:41.346Z,60.98
2018-03-07T00:47:41.354Z,61.08
2018-03-07T00:48:41.373Z,60.98
2018-03-07T00:49:41.427Z,61.27
2018-03-07T00:50:41.107Z,61.55
2018-03-07T00:51:41.397Z,61.17
2018-03-07T00:52:41.124Z,61.08
2018-03-07T00:53:41.416Z,61.17
2018-03-07T00:54:41.428Z,61.08
2018-03-07T00:55:41.442Z,61.17
2018-03-07T00:56:41.455Z,61.27
2018-03-07T00:57:41.172Z,61.17
2018-03-07T00:58:41.468Z,61.08
2018-03-07T00:59:41.195Z,61.08
2018-03-07T01:00:41.488Z,61.27
2018-03-07T01:01:41.501Z,60.98
2018-03-07T01:02:41.508Z,61.55
2018-03-07T01:03:41.239Z,61.27
2018-03-07T01:04:41.527Z,61.27
2018-03-07T01:05:41.258Z,61.65
2018-03-07T01:06:41.550Z,61.27
2018-03-07T01:07:41.561Z,60.98
2018-03-07T01:08:41.570Z,61.27
2018-03-07T01:09:41.349Z,60.98
2018-03-07T01:10:41.591Z,61.65
2018-03-07T01:11:41.605Z,61.36
2018-03-07T01:12:41.609Z,61.46
2018-03-07T01:13:41.338Z,61.27
2018-03-07T01:14:41.688Z,61.46
2018-03-07T01:15:41.644Z,61.46
2018-03-07T01:16:41.656Z,61.27
2018-03-07T01:17:41.663Z,61.46
2018-03-07T01:18:41.673Z,61.65
2018-03-07T01:19:41.736Z,61.65
2018-03-07T01:20:41.714Z,61.46
2018-03-07T01:21:41.422Z,61.17
2018-03-07T01:22:41.437Z,61.08
2018-03-07T01:23:41.722Z,61.17
2018-03-07T01:24:41.735Z,61.08
2018-03-07T01:25:41.748Z,61.36
2018-03-07T01:26:41.759Z,61.36
2018-03-07T01:27:41.765Z,61.36
2018-03-07T01:28:41.777Z,61.17
2018-03-07T01:29:41.789Z,60.98
2018-03-07T01:30:41.797Z,61.74
2018-03-07T01:31:41.522Z,61.08
2018-03-07T01:32:41.543Z,61.27
2018-03-07T01:33:41.824Z,61.08
2018-03-07T01:34:41.838Z,60.98
2018-03-07T01:35:41.847Z,61.27
2018-03-07T01:36:41.859Z,61.27
2018-03-07T01:37:41.585Z,61.65
2018-03-07T01:38:41.878Z,61.17
2018-03-07T01:39:41.911Z,61.55
2018-03-07T01:40:41.906Z,61.36
2018-03-07T01:41:41.626Z,61.36
2018-03-07T01:42:41.636Z,61.46
2018-03-07T01:43:41.928Z,61.36
2018-03-07T01:44:41.940Z,61.27
2018-03-07T01:45:41.948Z,61.36
2018-03-07T01:46:41.958Z,61.27
2018-03-07T01:47:41.968Z,61.17
2018-03-07T01:48:41.978Z,61.46
2018-03-07T01:49:41.707Z,61.36
2018-03-07T01:50:41.717Z,61.27
2018-03-07T01:51:41.729Z,61.65
2018-03-07T01:52:42.025Z,61.27
2018-03-07T01:53:41.748Z,61.55
2018-03-07T01:54:42.042Z,61.46
2018-03-07T01:55:42.052Z,61.65
2018-03-07T01:56:41.835Z,61.27
2018-03-07T01:57:41.796Z,61.08
2018-03-07T01:58:42.083Z,61.55
2018-03-07T01:59:42.090Z,61.55
2018-03-07T02:00:42.101Z,61.36
2018-03-07T02:01:42.113Z,61.46
2018-03-07T02:02:41.840Z,61.46
2018-03-07T02:03:42.135Z,61.27
2018-03-07T02:04:41.859Z,61.65
2018-03-07T02:05:42.151Z,61.83
2018-03-07T02:06:42.165Z,61.46
2018-03-07T02:07:42.181Z,61.27
2018-03-07T02:08:41.903Z,61.27
2018-03-07T02:09:42.201Z,61.17
2018-03-07T02:10:41.928Z,61.46
2018-03-07T02:11:42.211Z,61.46
2018-03-07T02:12:41.941Z,61.55
2018-03-07T02:13:41.955Z,61.55
2018-03-07T02:14:41.961Z,61.46
2018-03-07T02:15:41.973Z,61.74
2018-03-07T02:16:42.265Z,61.65
2018-03-07T02:17:41.996Z,61.46
2018-03-07T02:18:42.300Z,61.27
2018-03-07T02:19:42.296Z,61.46
2018-03-07T02:20:42.315Z,61.27
2018-03-07T02:21:42.033Z,61.17
2018-03-07T02:22:42.331Z,61.27
2018-03-07T02:23:42.354Z,61.27
2018-03-07T02:24:42.350Z,61.46
2018-03-07T02:25:42.361Z,61.27
2018-03-07T02:26:42.370Z,61.74
2018-03-07T02:27:42.101Z,61.55
2018-03-07T02:28:42.390Z,61.46
2018-03-07T02:29:42.400Z,61.27
2018-03-07T02:30:42.465Z,61.46
2018-03-07T02:31:42.139Z,61.46
2018-03-07T02:32:42.493Z,61.46
2018-03-07T02:33:42.472Z,61.27
2018-03-07T02:34:42.169Z,61.55
2018-03-07T02:35:42.227Z,61.65
2018-03-07T02:36:42.471Z,61.65
2018-03-07T02:37:42.198Z,61.74
2018-03-07T02:38:42.496Z,61.46
2018-03-07T02:39:42.503Z,61.65
2018-03-07T02:40:42.230Z,61.27
2018-03-07T02:41:42.532Z,61.27
2018-03-07T02:42:42.533Z,61.74
2018-03-07T02:43:42.552Z,61.27
2018-03-07T02:44:42.551Z,61.27
2018-03-07T02:45:42.572Z,61.36
2018-03-07T02:46:42.289Z,61.55
2018-03-07T02:47:42.600Z,61.65
2018-03-07T02:48:42.593Z,61.74
2018-03-07T02:49:42.602Z,61.74
2018-03-07T02:50:42.328Z,61.74
2018-03-07T02:51:42.626Z,61.36
2018-03-07T02:52:42.353Z,61.74
2018-03-07T02:53:42.658Z,61.83
2018-03-07T02:54:42.372Z,61.65
2018-03-07T02:55:42.717Z,61.83
2018-03-07T02:56:42.393Z,61.65
2018-03-07T02:57:42.692Z,61.36
2018-03-07T02:58:42.700Z,61.65
2018-03-07T02:59:42.709Z,61.65
2018-03-07T03:00:42.432Z,61.83
2018-03-07T03:01:42.442Z,61.74
2018-03-07T03:02:42.453Z,61.83
2018-03-07T03:03:42.463Z,61.83
2018-03-07T03:04:42.474Z,61.55
2018-03-07T03:05:42.775Z,61.55
2018-03-07T03:06:42.492Z,61.65
2018-03-07T03:07:42.505Z,61.74
2018-03-07T03:08:42.515Z,61.83
2018-03-07T03:09:42.806Z,61.74
2018-03-07T03:10:42.822Z,61.83
2018-03-07T03:11:42.546Z,61.83
2018-03-07T03:12:42.554Z,61.55
2018-03-07T03:13:42.565Z,61.83
2018-03-07T03:14:42.856Z,61.83
2018-03-07T03:15:42.926Z,61.65
2018-03-07T03:16:42.878Z,61.93
2018-03-07T03:17:42.898Z,61.65
2018-03-07T03:18:42.618Z,61.65
2018-03-07T03:19:42.909Z,61.17
2018-03-07T03:20:42.967Z,61.55
2018-03-07T03:21:42.646Z,61.46
2018-03-07T03:22:42.940Z,61.36
2018-03-07T03:23:42.953Z,61.65
2018-03-07T03:24:42.957Z,61.74
2018-03-07T03:25:42.687Z,61.46
2018-03-07T03:26:42.979Z,61.65
2018-03-07T03:27:42.707Z,61.74
2018-03-07T03:28:43.001Z,61.74
2018-03-07T03:29:43.011Z,61.27
2018-03-07T03:30:42.740Z,61.36
2018-03-07T03:31:42.749Z,61.74
2018-03-07T03:32:43.040Z,61.65
2018-03-07T03:33:43.052Z,61.55
2018-03-07T03:34:43.070Z,61.55
2018-03-07T03:35:43.075Z,61.36
2018-03-07T03:36:42.801Z,61.27
2018-03-07T03:37:43.097Z,61.65
2018-03-07T03:38:43.102Z,61.36
2018-03-07T03:39:43.118Z,61.27
2018-03-07T03:40:43.125Z,61.65
2018-03-07T03:41:43.135Z,61.74
2018-03-07T03:42:43.146Z,61.65
2018-03-07T03:43:42.870Z,61.74
2018-03-07T03:44:42.880Z,61.83
2018-03-07T03:45:43.266Z,61.65
2018-03-07T03:46:42.901Z,61.65
2018-03-07T03:47:43.197Z,61.74
2018-03-07T03:48:42.921Z,61.74
2018-03-07T03:49:43.215Z,61.74
2018-03-07T03:50:43.227Z,61.36
2018-03-07T03:51:43.235Z,61.74
2018-03-07T03:52:43.250Z,61.36
2018-03-07T03:53:43.255Z,61.46
2018-03-07T03:54:43.267Z,61.65
2018-03-07T03:55:43.276Z,61.65
2018-03-07T03:56:43.289Z,61.36
2018-03-07T03:57:43.013Z,61.65
2018-03-07T03:58:43.026Z,61.46
2018-03-07T03:59:43.320Z,61.74
2018-03-07T04:00:43.042Z,61.36
2018-03-07T04:01:43.336Z,61.65
2018-03-07T04:02:43.347Z,61.65
2018-03-07T04:03:43.354Z,61.55
2018-03-07T04:04:43.368Z,61.65
2018-03-07T04:05:43.095Z,61.74
2018-03-07T04:06:43.393Z,61.74
2018-03-07T04:07:43.400Z,61.55
2018-03-07T04:08:43.408Z,61.55
2018-03-07T04:09:43.136Z,61.65
2018-03-07T04:10:43.432Z,61.46
2018-03-07T04:11:43.439Z,61.46
2018-03-07T04:12:43.449Z,62.02
2018-03-07T04:13:43.175Z,62.21
2018-03-07T04:14:43.469Z,62.02
2018-03-07T04:15:43.487Z,61.83
2018-03-07T04:16:43.208Z,62.4
2018-03-07T04:17:43.507Z,62.02
2018-03-07T04:18:43.506Z,61.55
2018-03-07T04:19:43.530Z,61.74
2018-03-07T04:20:43.535Z,61.36
2018-03-07T04:21:43.257Z,61.55
2018-03-07T04:22:43.269Z,61.65
2018-03-07T04:23:43.288Z,61.27
2018-03-07T04:24:43.577Z,61.55
2018-03-07T04:25:43.582Z,61.27
2018-03-07T04:26:43.640Z,61.74
2018-03-07T04:27:43.606Z,61.55
2018-03-07T04:28:43.335Z,61.83
2018-03-07T04:29:43.621Z,61.55
2018-03-07T04:30:43.350Z,61.74
2018-03-07T04:31:43.408Z,61.55
2018-03-07T04:32:43.371Z,61.27
2018-03-07T04:33:43.661Z,61.27
2018-03-07T04:34:43.678Z,61.46
2018-03-07T04:35:43.684Z,61.74
2018-03-07T04:36:43.414Z,61.36
2018-03-07T04:37:43.705Z,61.65
2018-03-07T04:38:43.715Z,61.74
2018-03-07T04:39:43.441Z,61.36
2018-03-07T04:40:43.456Z,61.74
2018-03-07T04:41:43.743Z,61.74
2018-03-07T04:42:43.752Z,61.36
2018-03-07T04:43:43.767Z,61.74
2018-03-07T04:44:43.492Z,61.74
2018-03-07T04:45:43.783Z,61.65
2018-03-07T04:46:43.797Z,61.74
2018-03-07T04:47:43.520Z,61.46
2018-03-07T04:48:43.818Z,61.74
2018-03-07T04:49:43.544Z,61.36
2018-03-07T04:50:43.552Z,61.65
2018-03-07T04:51:43.898Z,61.55
2018-03-07T04:52:43.863Z,61.65
2018-03-07T04:53:43.866Z,61.55
2018-03-07T04:54:43.605Z,61.74
2018-03-07T04:55:43.603Z,61.65
2018-03-07T04:56:43.944Z,61.65
2018-03-07T04:57:43.916Z,61.46
2018-03-07T04:58:43.630Z,61.65
2018-03-07T04:59:43.924Z,61.27
2018-03-07T05:00:43.937Z,61.65
2018-03-07T05:01:44.000Z,61.65
2018-03-07T05:02:44.063Z,61.65
2018-03-07T05:03:43.972Z,61.46
2018-03-07T05:04:43.695Z,61.74
2018-03-07T05:05:43.704Z,61.74
2018-03-07T05:06:43.765Z,61.74
2018-03-07T05:07:44.013Z,61.74
2018-03-07T05:08:43.734Z,61.74
2018-03-07T05:09:43.742Z,61.74
2018-03-07T05:10:44.055Z,61.36
2018-03-07T05:11:44.052Z,61.74
2018-03-07T05:12:44.059Z,61.74
2018-03-07T05:13:44.067Z,61.36
2018-03-07T05:14:43.800Z,61.36
2018-03-07T05:15:43.805Z,61.65
2018-03-07T05:16:44.099Z,61.74
2018-03-07T05:17:44.109Z,61.74
2018-03-07T05:18:44.139Z,61.36
2018-03-07T05:19:44.127Z,61.36
2018-03-07T05:20:44.138Z,61.65
2018-03-07T05:21:43.867Z,61.74
2018-03-07T05:22:43.879Z,61.83
2018-03-07T05:23:44.170Z,61.27
2018-03-07T05:24:44.184Z,61.74
2018-03-07T05:25:43.908Z,61.83
2018-03-07T05:26:44.200Z,61.74
2018-03-07T05:27:44.213Z,61.83
2018-03-07T05:28:44.219Z,61.83
2018-03-07T05:29:44.232Z,61.65
2018-03-07T05:30:44.241Z,61.36
2018-03-07T05:31:44.252Z,61.65
2018-03-07T05:32:44.264Z,61.65
2018-03-07T05:33:44.282Z,61.36
2018-03-07T05:34:43.999Z,61.74
2018-03-07T05:35:44.289Z,61.27
2018-03-07T05:36:44.305Z,61.27
2018-03-07T05:37:44.311Z,61.36
2018-03-07T05:38:44.327Z,61.74
2018-03-07T05:39:44.332Z,61.65
2018-03-07T05:40:44.343Z,61.74
2018-03-07T05:41:44.071Z,61.74
2018-03-07T05:42:44.365Z,62.02
2018-03-07T05:43:44.372Z,61.65
2018-03-07T05:44:44.099Z,61.83
2018-03-07T05:45:44.114Z,61.65
2018-03-07T05:46:44.120Z,61.46
2018-03-07T05:47:44.426Z,61.74
2018-03-07T05:48:44.426Z,61.65
2018-03-07T05:49:44.433Z,61.74
2018-03-07T05:50:44.165Z,61.93
2018-03-07T05:51:44.453Z,61.55
2018-03-07T05:52:44.465Z,61.27
2018-03-07T05:53:44.472Z,61.17
2018-03-07T05:54:44.202Z,61.74
2018-03-07T05:55:44.498Z,61.65
2018-03-07T05:56:44.503Z,61.74
2018-03-07T05:57:44.516Z,61.74
2018-03-07T05:58:44.525Z,61.65
2018-03-07T05:59:44.539Z,62.4
2018-03-07T06:00:44.261Z,61.74
2018-03-07T06:01:44.555Z,61.74
2018-03-07T06:02:44.575Z,62.02
2018-03-07T06:03:44.575Z,62.02
2018-03-07T06:04:44.583Z,62.31
2018-03-07T06:05:44.604Z,62.21
2018-03-07T06:06:44.608Z,62.4
2018-03-07T06:07:44.333Z,62.4
2018-03-07T06:08:44.628Z,62.4
2018-03-07T06:09:44.640Z,62.4
2018-03-07T06:10:44.365Z,62.4
2018-03-07T06:11:44.654Z,62.21
2018-03-07T06:12:44.716Z,62.31
2018-03-07T06:13:44.675Z,62.21
2018-03-07T06:14:44.685Z,62.21
2018-03-07T06:15:44.697Z,62.31
2018-03-07T06:16:44.724Z,62.31
2018-03-07T06:17:44.486Z,62.4
2018-03-07T06:18:44.729Z,62.31
2018-03-07T06:19:44.463Z,62.31
2018-03-07T06:20:44.746Z,62.21
2018-03-07T06:21:44.756Z,62.31
2018-03-07T06:22:44.534Z,62.31
2018-03-07T06:23:44.493Z,62.21
2018-03-07T06:24:44.505Z,62.5
2018-03-07T06:25:44.796Z,62.21
2018-03-07T06:26:44.805Z,62.12
2018-03-07T06:27:44.868Z,62.21
2018-03-07T06:28:44.546Z,62.02
2018-03-07T06:29:44.840Z,62.12
2018-03-07T06:30:44.566Z,62.12
2018-03-07T06:31:44.863Z,62.31
2018-03-07T06:32:44.587Z,62.31
2018-03-07T06:33:44.884Z,62.4
2018-03-07T06:34:44.605Z,62.31
2018-03-07T06:35:44.897Z,62.31
2018-03-07T06:36:44.627Z,62.4
2018-03-07T06:37:44.922Z,62.5
2018-03-07T06:38:44.647Z,62.4
2018-03-07T06:39:44.942Z,62.02
2018-03-07T06:40:44.947Z,62.5
2018-03-07T06:41:44.954Z,62.12
2018-03-07T06:42:44.685Z,61.93
2018-03-07T06:43:44.694Z,62.21
2018-03-07T06:44:44.989Z,62.4
2018-03-07T06:45:44.998Z,62.02
2018-03-07T06:46:45.012Z,62.21
2018-03-07T06:47:45.031Z,62.31
2018-03-07T06:48:45.025Z,62.12
2018-03-07T06:49:45.039Z,62.21
2018-03-07T06:50:45.046Z,62.02
2018-03-07T06:51:45.059Z,62.21
2018-03-07T06:52:44.829Z,61.93
2018-03-07T06:53:45.082Z,62.31
2018-03-07T06:54:44.806Z,62.31
2018-03-07T06:55:45.102Z,62.31
2018-03-07T06:56:45.107Z,62.4
2018-03-07T06:57:45.131Z,62.21
2018-03-07T06:58:45.192Z,62.21
2018-03-07T06:59:45.140Z,62.02
2018-03-07T07:00:44.864Z,62.02
2018-03-07T07:01:45.160Z,62.31
2018-03-07T07:02:44.892Z,62.31
2018-03-07T07:03:44.896Z,62.5
2018-03-07T07:04:44.906Z,62.4
2018-03-07T07:05:44.917Z,62.31
2018-03-07T07:06:44.928Z,62.21
2018-03-07T07:07:45.220Z,62.4
2018-03-07T07:08:45.231Z,62.21
2018-03-07T07:09:44.956Z,62.5
2018-03-07T07:10:44.965Z,62.4
2018-03-07T07:11:45.264Z,62.4
2018-03-07T07:12:44.989Z,62.4
2018-03-07T07:13:45.281Z,62.4
2018-03-07T07:14:45.299Z,62.59
2018-03-07T07:15:45.018Z,62.5
2018-03-07T07:16:45.369Z,62.5
2018-03-07T07:17:45.038Z,62.5
2018-03-07T07:18:45.073Z,62.59
2018-03-07T07:19:45.349Z,62.4
2018-03-07T07:20:45.357Z,62.59
2018-03-07T07:21:45.368Z,62.5
2018-03-07T07:22:45.378Z,62.12
2018-03-07T07:23:45.100Z,62.31
2018-03-07T07:24:45.108Z,62.4
2018-03-07T07:25:45.404Z,62.4
2018-03-07T07:26:45.410Z,62.4
2018-03-07T07:27:45.142Z,62.59
2018-03-07T07:28:45.432Z,62.5
2018-03-07T07:29:45.159Z,62.69
2018-03-07T07:30:45.453Z,63.07
2018-03-07T07:31:45.180Z,62.88
2018-03-07T07:32:45.195Z,62.78
2018-03-07T07:33:45.486Z,62.88
2018-03-07T07:34:45.498Z,62.69
2018-03-07T07:35:45.218Z,62.88
2018-03-07T07:36:45.510Z,62.78
2018-03-07T07:37:45.241Z,63.45
2018-03-07T07:38:45.271Z,63.45
2018-03-07T07:39:45.560Z,63.54
2018-03-07T07:40:45.594Z,63.45
2018-03-07T07:41:45.563Z,63.35
2018-03-07T07:42:45.575Z,63.17
2018-03-07T07:43:45.299Z,63.45
2018-03-07T07:44:45.317Z,63.17
2018-03-07T07:45:45.605Z,63.17
2018-03-07T07:46:45.613Z,63.26
2018-03-07T07:47:45.622Z,63.26
2018-03-07T07:48:45.634Z,63.35
2018-03-07T07:49:45.361Z,63.45
2018-03-07T07:50:45.748Z,63.26
2018-03-07T07:51:45.664Z,63.45
2018-03-07T07:52:45.390Z,63.26
2018-03-07T07:53:45.400Z,63.26
2018-03-07T07:54:45.691Z,63.26
2018-03-07T07:55:45.707Z,63.45
2018-03-07T07:56:45.716Z,63.64
2018-03-07T07:57:45.762Z,63.26
2018-03-07T07:58:45.451Z,63.26
2018-03-07T07:59:45.745Z,63.73
2018-03-07T08:00:45.857Z,63.45
2018-03-07T08:01:45.766Z,63.26
2018-03-07T08:02:45.774Z,63.45
2018-03-07T08:03:45.782Z,63.64
2018-03-07T08:04:45.793Z,63.45
2018-03-07T08:05:45.522Z,63.64
2018-03-07T08:06:45.816Z,63.64
2018-03-07T08:07:45.823Z,63.54
2018-03-07T08:08:45.834Z,63.07
2018-03-07T08:09:45.844Z,63.54
2018-03-07T08:10:45.571Z,62.88
2018-03-07T08:11:45.874Z,63.54
2018-03-07T08:12:45.879Z,63.45
2018-03-07T08:13:45.602Z,63.54
2018-03-07T08:14:45.898Z,63.64
2018-03-07T08:15:45.907Z,63.54
2018-03-07T08:16:45.915Z,63.82
2018-03-07T08:17:45.930Z,63.82
2018-03-07T08:18:45.936Z,63.73
2018-03-07T08:19:45.945Z,64.01
2018-03-07T08:20:45.956Z,63.17
2018-03-07T08:21:45.683Z,63.45
2018-03-07T08:22:45.695Z,63.45
2018-03-07T08:23:45.703Z,63.35
2018-03-07T08:24:45.995Z,63.64
2018-03-07T08:25:46.008Z,63.35
2018-03-07T08:26:46.019Z,63.64
2018-03-07T08:27:46.088Z,63.26
2018-03-07T08:28:45.756Z,63.17
2018-03-07T08:29:46.050Z,63.26
2018-03-07T08:30:46.059Z,63.26
2018-03-07T08:31:45.787Z,63.64
2018-03-07T08:32:46.079Z,63.54
2018-03-07T08:33:46.137Z,63.57
2018-03-07T08:34:45.817Z,63.64
2018-03-07T08:35:46.127Z,63.54
2018-03-07T08:36:46.122Z,63.45
2018-03-07T08:37:46.130Z,63.73
2018-03-07T08:38:46.194Z,63.73
2018-03-07T08:39:46.156Z,63.35
2018-03-07T08:40:45.877Z,63.26
2018-03-07T08:41:45.892Z,63.35
2018-03-07T08:42:46.179Z,63.45
2018-03-07T08:43:45.928Z,63.48
2018-03-07T08:44:46.208Z,63.29
2018-03-07T08:45:45.929Z,63.35
2018-03-07T08:46:45.940Z,63.92
2018-03-07T08:47:46.233Z,63.73
2018-03-07T08:48:46.244Z,63.45
2018-03-07T08:49:46.252Z,63.54
2018-03-07T08:50:46.266Z,63.48
2018-03-07T08:51:45.989Z,63.48
2018-03-07T08:52:46.003Z,63.57
2018-03-07T08:53:46.293Z,63.67
2018-03-07T08:54:46.346Z,63.29
2018-03-07T08:55:46.312Z,63.26
2018-03-07T08:56:46.043Z,63.95
2018-03-07T08:57:46.356Z,63.95
2018-03-07T08:58:46.061Z,63.86
2018-03-07T08:59:46.071Z,63.86
2018-03-07T09:00:46.082Z,63.86
2018-03-07T09:01:46.373Z,63.67
2018-03-07T09:02:46.390Z,63.86
2018-03-07T09:03:46.115Z,63.95
2018-03-07T09:04:46.424Z,63.76
2018-03-07T09:05:46.135Z,63.48
2018-03-07T09:06:46.428Z,63.67
2018-03-07T09:07:46.438Z,63.76
2018-03-07T09:08:46.448Z,63.86
2018-03-07T09:09:46.177Z,63.57
2018-03-07T09:10:46.184Z,63.67
2018-03-07T09:11:46.480Z,63.29
2018-03-07T09:12:46.487Z,64.14
2018-03-07T09:13:46.500Z,63.39
2018-03-07T09:14:46.511Z,63.86
2018-03-07T09:15:46.519Z,64.14
2018-03-07T09:16:46.530Z,64.24
2018-03-07T09:17:46.258Z,63.95
2018-03-07T09:18:46.555Z,63.95
2018-03-07T09:19:46.276Z,63.67
2018-03-07T09:20:46.576Z,63.76
2018-03-07T09:21:46.301Z,63.95
2018-03-07T09:22:46.309Z,64.24
2018-03-07T09:23:46.600Z,63.95
2018-03-07T09:24:46.630Z,63.95
2018-03-07T09:25:46.631Z,63.86
2018-03-07T09:26:46.631Z,64.14
2018-03-07T09:27:46.645Z,64.05
2018-03-07T09:28:46.660Z,64.24
2018-03-07T09:29:46.663Z,64.05
2018-03-07T09:30:46.391Z,64.24
2018-03-07T09:31:46.686Z,63.86
2018-03-07T09:32:46.698Z,63.86
2018-03-07T09:33:46.423Z,64.05
2018-03-07T09:34:46.714Z,64.14
2018-03-07T09:35:46.723Z,64.24
2018-03-07T09:36:46.458Z,63.67
2018-03-07T09:37:46.464Z,63.76
2018-03-07T09:38:46.479Z,64.14
2018-03-07T09:39:46.485Z,64.24
2018-03-07T09:40:46.784Z,63.86
2018-03-07T09:41:46.510Z,64.33
2018-03-07T09:42:46.799Z,64.05
2018-03-07T09:43:46.809Z,63.86
2018-03-07T09:44:46.768Z,64.05
2018-03-07T09:45:46.548Z,64.43
2018-03-07T09:46:46.558Z,63.86
2018-03-07T09:47:46.569Z,63.86
2018-03-07T09:48:46.863Z,63.76
2018-03-07T09:49:46.874Z,63.95
2018-03-07T09:50:46.599Z,63.67
2018-03-07T09:51:46.893Z,63.67
2018-03-07T09:52:46.905Z,63.86
2018-03-07T09:53:46.629Z,63.29
2018-03-07T09:54:46.920Z,63.76
2018-03-07T09:55:46.650Z,64.05
2018-03-07T09:56:46.664Z,63.57
2018-03-07T09:57:46.963Z,63.57
2018-03-07T09:58:46.966Z,63.39
2018-03-07T09:59:46.977Z,63.67
2018-03-07T10:00:46.987Z,63.57
2018-03-07T10:01:47.001Z,64.05
2018-03-07T10:02:46.725Z,63.95
2018-03-07T10:03:47.020Z,63.76
2018-03-07T10:04:46.798Z,63.86
2018-03-07T10:05:47.036Z,63.76
2018-03-07T10:06:47.055Z,63.76
2018-03-07T10:07:47.062Z,63.67
2018-03-07T10:08:47.075Z,63.48
2018-03-07T10:09:47.134Z,63.29
2018-03-07T10:10:47.093Z,63.39
2018-03-07T10:11:47.110Z,63.76
2018-03-07T10:12:47.112Z,63.95
2018-03-07T10:13:47.133Z,63.86
2018-03-07T10:14:46.902Z,63.76
2018-03-07T10:15:47.156Z,63.57
2018-03-07T10:16:46.875Z,63.48
2018-03-07T10:17:46.884Z,63.48
2018-03-07T10:18:47.184Z,63.76
2018-03-07T10:19:46.955Z,63.48
2018-03-07T10:20:46.922Z,63.48
2018-03-07T10:21:46.927Z,63.29
2018-03-07T10:22:47.231Z,63.57
2018-03-07T10:23:47.237Z,63.57
2018-03-07T10:24:47.008Z,63.57
2018-03-07T10:25:47.264Z,63.2
2018-03-07T10:26:46.981Z,63.29
2018-03-07T10:27:47.278Z,63.48
2018-03-07T10:28:47.003Z,63.29
2018-03-07T10:29:47.014Z,63.42
2018-03-07T10:30:47.025Z,63.23
2018-03-07T10:31:47.318Z,63.29
2018-03-07T10:32:47.045Z,63.23
2018-03-07T10:33:47.337Z,63.51
2018-03-07T10:34:47.116Z,63.51
2018-03-07T10:35:47.079Z,63.79
2018-03-07T10:36:47.085Z,63.6
2018-03-07T10:37:47.383Z,63.6
2018-03-07T10:38:47.390Z,63.6
2018-03-07T10:39:47.121Z,63.42
2018-03-07T10:40:47.130Z,63.13
2018-03-07T10:41:47.433Z,63.32
2018-03-07T10:42:47.150Z,63.13
2018-03-07T10:43:47.161Z,63.51
2018-03-07T10:44:47.175Z,63.79
2018-03-07T10:45:47.468Z,63.32
2018-03-07T10:46:47.198Z,63.42
2018-03-07T10:47:47.208Z,63.32
2018-03-07T10:48:47.216Z,63.42
2018-03-07T10:49:47.560Z,63.79
2018-03-07T10:50:47.238Z,63.13
2018-03-07T10:51:47.533Z,63.32
2018-03-07T10:52:47.258Z,63.32
2018-03-07T10:53:47.560Z,63.32
2018-03-07T10:54:47.614Z,63.32
2018-03-07T10:55:47.573Z,63.51
2018-03-07T10:56:47.301Z,63.23
2018-03-07T10:57:47.314Z,63.51
2018-03-07T10:58:47.328Z,63.32
2018-03-07T10:59:47.678Z,63.32
2018-03-07T11:00:47.350Z,63.7
2018-03-07T11:01:47.637Z,63.6
2018-03-07T11:02:47.652Z,63.6
2018-03-07T11:03:47.658Z,63.51
2018-03-07T11:04:47.672Z,63.6
2018-03-07T11:05:47.400Z,63.6
2018-03-07T11:06:47.692Z,63.51
2018-03-07T11:07:47.420Z,63.51
2018-03-07T11:08:47.713Z,63.51
2018-03-07T11:09:47.740Z,63.51
2018-03-07T11:10:47.739Z,63.42
2018-03-07T11:11:47.746Z,63.51
2018-03-07T11:12:47.760Z,63.51
2018-03-07T11:13:47.772Z,63.51
2018-03-07T11:14:47.499Z,63.6
2018-03-07T11:15:47.509Z,63.6
2018-03-07T11:16:47.520Z,63.32
2018-03-07T11:17:47.816Z,63.23
2018-03-07T11:18:47.829Z,63.13
2018-03-07T11:19:47.554Z,63.23
2018-03-07T11:20:47.844Z,63.23
2018-03-07T11:21:47.576Z,63.51
2018-03-07T11:22:47.584Z,63.51
2018-03-07T11:23:47.596Z,63.51
2018-03-07T11:24:47.890Z,63.51
2018-03-07T11:25:47.617Z,63.6
2018-03-07T11:26:47.915Z,63.42
2018-03-07T11:27:47.926Z,63.51
2018-03-07T11:28:47.934Z,63.7
2018-03-07T11:29:47.942Z,63.32
2018-03-07T11:30:47.969Z,63.51
2018-03-07T11:31:47.966Z,63.23
2018-03-07T11:32:47.978Z,63.23
2018-03-07T11:33:47.703Z,63.42
2018-03-07T11:34:47.719Z,63.51
2018-03-07T11:35:47.729Z,63.42
2018-03-07T11:36:47.738Z,63.6
2018-03-07T11:37:47.751Z,63.42
2018-03-07T11:38:48.041Z,63.6
2018-03-07T11:39:47.804Z,63.6
2018-03-07T11:40:48.066Z,63.42
2018-03-07T11:41:48.074Z,63.51
2018-03-07T11:42:48.083Z,63.51
2018-03-07T11:43:48.097Z,63.13
2018-03-07T11:44:47.824Z,63.51
2018-03-07T11:45:48.172Z,63.13
2018-03-07T11:46:48.132Z,63.23
2018-03-07T11:47:48.139Z,63.23
2018-03-07T11:48:48.149Z,63.42
2018-03-07T11:49:47.879Z,63.23
2018-03-07T11:50:47.943Z,63.23
2018-03-07T11:51:48.184Z,63.51
2018-03-07T11:52:48.198Z,63.32
2018-03-07T11:53:47.921Z,63.51
2018-03-07T11:54:48.221Z,63.51
2018-03-07T11:55:48.276Z,63.13
2018-03-07T11:56:48.241Z,63.42
2018-03-07T11:57:48.249Z,63.6
2018-03-07T11:58:48.266Z,63.51
2018-03-07T11:59:48.271Z,63.6
2018-03-07T12:00:48.283Z,63.23
2018-03-07T12:01:48.293Z,63.51
2018-03-07T12:02:48.020Z,63.32
2018-03-07T12:03:48.314Z,63.79
2018-03-07T12:04:48.324Z,63.79
2018-03-07T12:05:48.338Z,63.6
2018-03-07T12:06:48.344Z,63.7
2018-03-07T12:07:48.358Z,63.6
2018-03-07T12:08:48.367Z,63.51
2018-03-07T12:09:48.098Z,63.32
2018-03-07T12:10:48.442Z,63.7
2018-03-07T12:11:48.399Z,63.7
2018-03-07T12:12:48.129Z,63.79
2018-03-07T12:13:48.425Z,63.51
2018-03-07T12:14:48.432Z,63.51
2018-03-07T12:15:48.162Z,63.32
2018-03-07T12:16:48.455Z,63.32
2018-03-07T12:17:48.184Z,63.42
2018-03-07T12:18:48.479Z,63.32
2018-03-07T12:19:48.488Z,63.6
2018-03-07T12:20:48.498Z,63.79
2018-03-07T12:21:48.510Z,63.7
2018-03-07T12:22:48.238Z,63.51
2018-03-07T12:23:48.535Z,63.79
2018-03-07T12:24:48.257Z,63.7
2018-03-07T12:25:48.604Z,63.51
2018-03-07T12:26:48.280Z,63.23
2018-03-07T12:27:48.290Z,63.23
2018-03-07T12:28:48.312Z,63.04
2018-03-07T12:29:48.598Z,63.13
2018-03-07T12:30:48.325Z,63.13
2018-03-07T12:31:48.624Z,63.32
2018-03-07T12:32:48.627Z,63.7
2018-03-07T12:33:48.641Z,63.32
2018-03-07T12:34:48.652Z,63.13
2018-03-07T12:35:48.672Z,63.51
2018-03-07T12:36:48.673Z,63.51
2018-03-07T12:37:48.682Z,63.32
2018-03-07T12:38:48.692Z,63.51
2018-03-07T12:39:48.703Z,63.23
2018-03-07T12:40:48.720Z,63.51
2018-03-07T12:41:48.803Z,63.23
2018-03-07T12:42:48.456Z,63.6
2018-03-07T12:43:48.752Z,63.32
2018-03-07T12:44:48.479Z,63.13
2018-03-07T12:45:48.772Z,63.51
2018-03-07T12:46:48.781Z,63.51
2018-03-07T12:47:48.794Z,63.6
2018-03-07T12:48:48.522Z,63.42
2018-03-07T12:49:48.534Z,63.04
2018-03-07T12:50:48.822Z,63.6
2018-03-07T12:51:48.554Z,63.42
2018-03-07T12:52:48.564Z,62.75
2018-03-07T12:53:48.857Z,62.94
2018-03-07T12:54:48.869Z,62.85
2018-03-07T12:55:48.596Z,63.04
2018-03-07T12:56:48.608Z,63.42
2018-03-07T12:57:48.904Z,63.42
2018-03-07T12:58:48.631Z,63.23
2018-03-07T12:59:48.925Z,63.23
2018-03-07T13:00:48.938Z,63.32